createdAt,value
2023-09-03T00:00:44.850Z,18.52
2023-09-03T00:03:12.626Z,18.51
2023-09-03T00:05:49.026Z,18.51
2023-09-03T00:08:16.577Z,18.46
2023-09-03T00:10:44.146Z,18.43
2023-09-03T00:13:13.055Z,18.40
2023-09-03T00:15:41.125Z,18.39
2023-09-03T00:18:11.045Z,18.38
2023-09-03T00:20:40.908Z,18.35
2023-09-03T00:23:08.760Z,18.34
2023-09-03T00:25:37.284Z,18.34
2023-09-03T00:28:05.373Z,18.31
2023-09-03T00:30:34.372Z,18.31
2023-09-03T00:33:02.081Z,18.28
2023-09-03T00:35:29.692Z,18.26
2023-09-03T00:37:57.283Z,18.26
2023-09-03T00:40:24.847Z,18.25
2023-09-03T00:42:52.414Z,18.23
2023-09-03T00:45:20.029Z,18.23
2023-09-03T00:47:49.297Z,18.22
2023-09-03T00:50:17.154Z,18.23
2023-09-03T00:52:44.906Z,18.23
2023-09-03T00:55:12.547Z,18.21
2023-09-03T00:57:40.266Z,18.21
2023-09-03T01:00:09.185Z,18.20
2023-09-03T01:02:37.828Z,18.20
2023-09-03T01:05:07.551Z,18.22
2023-09-03T01:07:35.191Z,18.24
2023-09-03T01:10:03.243Z,18.24
2023-09-03T01:12:37.132Z,18.23
2023-09-03T01:15:14.226Z,18.20
2023-09-03T01:17:47.667Z,18.20
2023-09-03T01:20:20.054Z,18.20
2023-09-03T01:23:22.605Z,18.21
2023-09-03T01:26:13.408Z,18.27
2023-09-03T01:28:43.696Z,18.31
2023-09-03T01:31:13.315Z,18.37
2023-09-03T01:33:43.370Z,18.43
2023-09-03T01:36:12.728Z,18.42
2023-09-03T01:38:41.428Z,18.41
2023-09-03T01:41:10.033Z,18.41
2023-09-03T01:43:37.869Z,18.43
2023-09-03T01:46:09.382Z,18.37
2023-09-03T01:48:55.388Z,18.32
2023-09-03T01:51:30.939Z,18.31
2023-09-03T01:54:05.366Z,18.34
2023-09-03T01:56:38.660Z,18.40
2023-09-03T01:59:17.058Z,18.43
2023-09-03T02:01:47.285Z,18.42
2023-09-03T02:04:15.113Z,18.43
2023-09-03T02:06:46.731Z,18.41
2023-09-03T02:09:14.621Z,18.39
2023-09-03T02:11:42.252Z,18.38
2023-09-03T02:14:09.877Z,18.38
2023-09-03T02:16:37.531Z,18.35
2023-09-03T02:19:06.593Z,18.33
2023-09-03T02:21:34.208Z,18.30
2023-09-03T02:24:01.867Z,18.28
2023-09-03T02:26:29.468Z,18.23
2023-09-03T02:28:57.066Z,18.22
2023-09-03T02:31:24.873Z,18.21
2023-09-03T02:33:52.536Z,18.18
2023-09-03T02:36:21.495Z,18.19
2023-09-03T02:38:49.047Z,18.23
2023-09-03T02:41:16.584Z,18.23
2023-09-03T02:43:44.106Z,18.24
2023-09-03T02:46:11.723Z,18.22
2023-09-03T02:48:39.370Z,18.21
2023-09-03T02:51:07.023Z,18.23
2023-09-03T02:53:35.925Z,18.19
2023-09-03T02:56:03.731Z,18.17
2023-09-03T02:58:31.306Z,18.18
2023-09-03T03:01:05.328Z,18.18
2023-09-03T03:03:32.857Z,18.19
2023-09-03T03:06:00.441Z,18.15
2023-09-03T03:08:28.009Z,18.07
2023-09-03T03:11:06.351Z,18.06
2023-09-03T03:13:33.924Z,18.09
2023-09-03T03:16:06.144Z,18.08
2023-09-03T03:18:34.994Z,18.04
2023-09-03T03:21:07.009Z,18.09
2023-09-03T03:23:34.829Z,18.12
2023-09-03T03:26:04.714Z,18.16
2023-09-03T03:28:34.375Z,18.16
2023-09-03T03:31:10.326Z,18.16
2023-09-03T03:33:38.253Z,18.16
2023-09-03T03:36:06.195Z,18.11
2023-09-03T03:38:34.156Z,18.08
2023-09-03T03:41:10.735Z,18.02
2023-09-03T03:43:38.659Z,17.97
2023-09-03T03:46:07.251Z,17.98
2023-09-03T03:48:35.338Z,17.94
2023-09-03T03:51:03.455Z,17.88
2023-09-03T03:53:31.329Z,17.86
2023-09-03T03:55:59.998Z,17.84
2023-09-03T03:58:30.472Z,17.77
2023-09-03T04:00:58.365Z,17.76
2023-09-03T04:03:28.564Z,17.70
2023-09-03T04:06:00.041Z,17.67
2023-09-03T04:08:28.629Z,17.73
2023-09-03T04:10:59.657Z,17.73
2023-09-03T04:13:29.009Z,17.76
2023-09-03T04:15:57.105Z,17.80
2023-09-03T04:18:25.178Z,17.82
2023-09-03T04:20:54.009Z,17.91
2023-09-03T04:23:21.869Z,17.89
2023-09-03T04:25:49.653Z,17.91
2023-09-03T04:28:17.222Z,17.99
2023-09-03T04:30:46.183Z,17.98
2023-09-03T04:33:14.496Z,18.02
2023-09-03T04:35:42.141Z,18.04
2023-09-03T04:38:10.393Z,18.08
2023-09-03T04:40:38.545Z,17.98
2023-09-03T04:43:07.289Z,17.92
2023-09-03T04:45:34.922Z,17.94
2023-09-03T04:48:04.046Z,17.88
2023-09-03T04:50:32.000Z,17.87
2023-09-03T04:52:59.592Z,17.86
2023-09-03T04:55:27.188Z,17.82
2023-09-03T04:57:54.809Z,17.77
2023-09-03T05:00:22.613Z,17.83
2023-09-03T05:02:50.356Z,17.84
2023-09-03T05:05:19.823Z,17.89
2023-09-03T05:07:48.371Z,17.89
2023-09-03T05:10:16.672Z,17.92
2023-09-03T05:12:44.869Z,17.95
2023-09-03T05:15:13.865Z,18.03
2023-09-03T05:17:41.810Z,18.07
2023-09-03T05:20:10.467Z,18.10
2023-09-03T05:22:39.540Z,18.15
2023-09-03T05:25:08.512Z,18.14
2023-09-03T05:27:38.500Z,18.12
2023-09-03T05:30:08.060Z,18.16
2023-09-03T05:32:35.610Z,18.14
2023-09-03T05:35:03.186Z,18.12
2023-09-03T05:37:30.854Z,18.15
2023-09-03T05:39:59.791Z,18.09
2023-09-03T05:42:27.353Z,18.11
2023-09-03T05:44:56.445Z,18.09
2023-09-03T05:47:24.304Z,18.09
2023-09-03T05:49:56.183Z,18.18
2023-09-03T05:52:23.843Z,18.25
2023-09-03T05:54:52.179Z,18.24
2023-09-03T05:57:21.855Z,18.18
2023-09-03T05:59:51.100Z,18.22
2023-09-03T06:02:19.051Z,18.20
2023-09-03T06:04:46.646Z,18.22
2023-09-03T06:07:14.645Z,18.29
2023-09-03T06:09:42.407Z,18.34
2023-09-03T06:12:10.196Z,18.37
2023-09-03T06:14:41.087Z,18.39
2023-09-03T06:17:08.981Z,18.38
2023-09-03T06:19:36.553Z,18.43
2023-09-03T06:22:04.232Z,18.50
2023-09-03T06:24:31.887Z,18.56
2023-09-03T06:26:59.489Z,18.59
2023-09-03T06:29:27.503Z,18.64
2023-09-03T06:31:56.614Z,18.67
2023-09-03T06:34:26.491Z,18.66
2023-09-03T06:36:54.061Z,18.68
2023-09-03T06:39:21.799Z,18.73
2023-09-03T06:41:49.340Z,18.80
2023-09-03T06:44:17.540Z,18.85
2023-09-03T06:46:45.159Z,18.87
2023-09-03T06:49:14.044Z,18.93
2023-09-03T06:51:41.804Z,19.01
2023-09-03T06:54:09.648Z,19.07
2023-09-03T06:56:37.221Z,19.10
2023-09-03T06:59:05.036Z,19.12
2023-09-03T07:01:33.161Z,19.14
2023-09-03T07:04:01.034Z,19.20
2023-09-03T07:06:30.325Z,19.26
2023-09-03T07:08:58.134Z,19.26
2023-09-03T07:11:26.036Z,19.28
2023-09-03T07:13:53.956Z,19.32
2023-09-03T07:16:21.862Z,19.37
2023-09-03T07:18:49.760Z,19.41
2023-09-03T07:21:17.600Z,19.44
2023-09-03T07:23:46.885Z,19.51
2023-09-03T07:26:15.581Z,19.58
2023-09-03T07:28:43.369Z,19.63
2023-09-03T07:31:11.380Z,19.68
2023-09-03T07:33:39.789Z,19.72
2023-09-03T07:36:12.131Z,19.80
2023-09-03T07:38:40.176Z,19.89
2023-09-03T07:41:09.240Z,19.92
2023-09-03T07:43:37.277Z,19.96
2023-09-03T07:46:06.377Z,20.01
2023-09-03T07:48:35.563Z,20.10
2023-09-03T07:51:03.609Z,20.21
2023-09-03T07:53:33.897Z,20.31
2023-09-03T07:56:02.084Z,20.46
2023-09-03T07:58:31.504Z,20.62
2023-09-03T08:00:59.780Z,20.78
2023-09-03T08:03:33.778Z,20.96
2023-09-03T08:06:02.178Z,21.11
2023-09-03T08:08:30.523Z,21.24
2023-09-03T08:10:58.564Z,21.36
2023-09-03T08:13:26.797Z,21.53
2023-09-03T08:15:56.286Z,21.69
2023-09-03T08:18:24.779Z,21.81
2023-09-03T08:20:53.596Z,21.96
2023-09-03T08:23:22.116Z,22.11
2023-09-03T08:25:50.282Z,22.29
2023-09-03T08:28:18.295Z,22.52
2023-09-03T08:30:48.737Z,22.78
2023-09-03T08:33:18.185Z,23.04
2023-09-03T08:35:46.898Z,23.31
2023-09-03T08:38:15.150Z,23.58
2023-09-03T08:40:45.043Z,24.02
2023-09-03T08:43:16.943Z,24.60
2023-09-03T08:45:52.275Z,25.28
2023-09-03T08:48:22.271Z,25.89
2023-09-03T08:50:50.565Z,26.44
2023-09-03T08:53:19.080Z,27.00
2023-09-03T08:55:46.900Z,27.43
2023-09-03T08:58:16.577Z,27.87
2023-09-03T09:00:44.745Z,28.34
2023-09-03T09:03:13.221Z,28.74
2023-09-03T09:05:43.972Z,28.95
2023-09-03T09:08:12.021Z,29.11
2023-09-03T09:10:48.285Z,29.41
2023-09-03T09:13:21.832Z,29.67
2023-09-03T09:15:49.707Z,29.82
2023-09-03T09:18:17.392Z,29.79
2023-09-03T09:20:48.457Z,29.81
2023-09-03T09:23:22.882Z,29.93
2023-09-03T09:25:51.437Z,30.08
2023-09-03T09:28:19.058Z,30.17
2023-09-03T09:30:56.835Z,30.13
2023-09-03T09:33:25.221Z,30.01
2023-09-03T09:35:55.040Z,29.85
2023-09-03T09:38:36.803Z,29.61
2023-09-03T09:41:22.395Z,29.33
2023-09-03T09:43:50.136Z,29.09
2023-09-03T09:46:26.973Z,28.85
2023-09-03T09:48:58.699Z,28.55
2023-09-03T09:51:28.848Z,28.33
2023-09-03T09:53:57.691Z,28.19
2023-09-03T09:56:29.919Z,28.19
2023-09-03T09:58:59.358Z,28.29
2023-09-03T10:01:28.561Z,28.42
2023-09-03T10:03:56.656Z,28.53
2023-09-03T10:06:25.195Z,28.60
2023-09-03T10:08:54.132Z,28.60
2023-09-03T10:11:22.222Z,28.59
2023-09-03T10:13:50.467Z,28.62
2023-09-03T10:16:21.550Z,28.66
2023-09-03T10:18:51.262Z,28.69
2023-09-03T10:21:23.385Z,28.64
2023-09-03T10:23:58.060Z,28.57
2023-09-03T10:26:30.984Z,28.48
2023-09-03T10:29:05.226Z,28.45
2023-09-03T10:31:35.576Z,28.42
2023-09-03T10:34:03.619Z,28.43
2023-09-03T10:36:31.834Z,28.40
2023-09-03T10:39:23.293Z,28.34
2023-09-03T10:42:11.492Z,28.32
2023-09-03T10:44:43.292Z,28.26
2023-09-03T10:47:15.134Z,28.20
2023-09-03T10:49:43.091Z,28.15
2023-09-03T10:52:36.205Z,27.98
2023-09-03T10:55:21.815Z,27.82
2023-09-03T10:57:50.769Z,27.74
2023-09-03T11:00:22.369Z,27.70
2023-09-03T11:03:23.989Z,27.77
2023-09-03T11:06:20.039Z,27.74
2023-09-03T11:08:47.964Z,27.75
2023-09-03T11:11:23.449Z,27.76
2023-09-03T11:13:52.414Z,27.76
2023-09-03T11:16:20.436Z,27.79
2023-09-03T11:18:51.558Z,27.83
2023-09-03T11:21:19.205Z,27.87
2023-09-03T11:24:00.724Z,27.89
2023-09-03T11:26:30.032Z,27.91
2023-09-03T11:28:58.245Z,27.94
2023-09-03T11:31:26.587Z,27.92
2023-09-03T11:33:54.808Z,27.81
2023-09-03T11:36:22.846Z,27.66
2023-09-03T11:38:51.259Z,27.50
2023-09-03T11:41:19.770Z,27.34
2023-09-03T11:43:49.392Z,27.17
2023-09-03T11:46:18.306Z,27.05
2023-09-03T11:48:50.306Z,27.00
2023-09-03T11:51:27.448Z,27.01
2023-09-03T11:53:56.299Z,27.04
2023-09-03T11:56:26.047Z,27.10
2023-09-03T11:58:59.640Z,27.16
2023-09-03T12:01:27.723Z,27.19
2023-09-03T12:03:55.611Z,27.21
2023-09-03T12:06:23.297Z,27.16
2023-09-03T12:08:50.972Z,27.06
2023-09-03T12:11:18.598Z,26.95
2023-09-03T12:13:46.210Z,26.87
2023-09-03T12:16:16.635Z,26.81
2023-09-03T12:18:56.298Z,26.82
2023-09-03T12:21:32.814Z,26.85
2023-09-03T12:24:00.525Z,26.90
2023-09-03T12:26:28.176Z,27.00
2023-09-03T12:28:57.368Z,27.09
2023-09-03T12:31:41.409Z,27.17
2023-09-03T12:34:09.667Z,27.16
2023-09-03T12:36:55.451Z,27.11
2023-09-03T12:39:30.318Z,27.06
2023-09-03T12:41:58.035Z,27.00
2023-09-03T12:44:27.573Z,26.92
2023-09-03T12:46:56.802Z,26.86
2023-09-03T12:49:25.053Z,26.85
2023-09-03T12:51:52.702Z,26.84
2023-09-03T12:54:20.599Z,26.84
2023-09-03T12:56:48.380Z,26.86
2023-09-03T12:59:16.037Z,26.87
2023-09-03T13:01:43.935Z,26.87
2023-09-03T13:04:15.447Z,26.85
2023-09-03T13:06:43.793Z,26.84
2023-09-03T13:09:11.517Z,26.82
2023-09-03T13:11:39.548Z,26.80
2023-09-03T13:14:07.418Z,26.80
2023-09-03T13:16:35.360Z,26.75
2023-09-03T13:19:03.085Z,26.71
2023-09-03T13:21:36.795Z,26.69
2023-09-03T13:24:04.946Z,26.65
2023-09-03T13:26:32.623Z,26.62
2023-09-03T13:29:00.231Z,26.62
2023-09-03T13:31:27.908Z,26.59
2023-09-03T13:33:57.266Z,26.56
2023-09-03T13:36:24.960Z,26.55
2023-09-03T13:38:54.145Z,26.56
2023-09-03T13:41:24.062Z,26.58
2023-09-03T13:43:52.218Z,26.59
2023-09-03T13:46:22.527Z,26.61
2023-09-03T13:48:50.713Z,26.60
2023-09-03T13:51:18.422Z,26.59
2023-09-03T13:53:47.407Z,26.57
2023-09-03T13:56:16.407Z,26.58
2023-09-03T13:58:44.014Z,26.55
2023-09-03T14:01:11.690Z,26.50
2023-09-03T14:03:39.470Z,26.47
2023-09-03T14:06:08.108Z,26.44
2023-09-03T14:08:35.898Z,26.44
2023-09-03T14:11:03.601Z,26.40
2023-09-03T14:13:32.877Z,26.35
2023-09-03T14:16:01.150Z,26.27
2023-09-03T14:18:29.202Z,26.23
2023-09-03T14:20:57.244Z,26.20
2023-09-03T14:23:25.219Z,26.15
2023-09-03T14:25:53.094Z,26.12
2023-09-03T14:28:20.991Z,26.07
2023-09-03T14:30:50.364Z,26.01
2023-09-03T14:33:18.959Z,25.97
2023-09-03T14:35:48.009Z,25.96
2023-09-03T14:38:15.651Z,25.96
2023-09-03T14:40:50.311Z,25.94
2023-09-03T14:43:17.900Z,25.90
2023-09-03T14:45:45.488Z,25.88
2023-09-03T14:48:14.817Z,25.85
2023-09-03T14:50:42.785Z,25.84
2023-09-03T14:53:10.482Z,25.84
2023-09-03T14:55:43.151Z,25.82
2023-09-03T14:58:10.765Z,25.77
2023-09-03T15:00:38.384Z,25.73
2023-09-03T15:03:06.740Z,25.69
2023-09-03T15:05:35.804Z,25.66
2023-09-03T15:08:03.492Z,25.63
2023-09-03T15:10:31.401Z,25.59
2023-09-03T15:12:59.042Z,25.56
2023-09-03T15:15:26.672Z,25.52
2023-09-03T15:17:54.343Z,25.48
2023-09-03T15:20:22.003Z,25.44
2023-09-03T15:22:51.033Z,25.42
2023-09-03T15:25:18.974Z,25.38
2023-09-03T15:27:46.614Z,25.37
2023-09-03T15:30:14.577Z,25.36
2023-09-03T15:32:42.257Z,25.33
2023-09-03T15:35:10.199Z,25.28
2023-09-03T15:37:37.866Z,25.24
2023-09-03T15:40:08.788Z,25.21
2023-09-03T15:42:36.473Z,25.18
2023-09-03T15:45:04.756Z,25.13
2023-09-03T15:47:32.550Z,25.05
2023-09-03T15:50:00.308Z,25.01
2023-09-03T15:52:28.109Z,24.98
2023-09-03T15:54:55.996Z,24.94
2023-09-03T15:57:25.372Z,24.93
2023-09-03T15:59:53.177Z,24.93
2023-09-03T16:02:21.114Z,24.87
2023-09-03T16:04:48.962Z,24.81
2023-09-03T16:07:18.696Z,24.80
2023-09-03T16:09:46.743Z,24.78
2023-09-03T16:12:14.944Z,24.74
2023-09-03T16:14:44.286Z,24.73
2023-09-03T16:17:12.339Z,24.73
2023-09-03T16:19:40.234Z,24.70
2023-09-03T16:22:08.060Z,24.66
2023-09-03T16:24:35.990Z,24.61
2023-09-03T16:27:04.365Z,24.57
2023-09-03T16:29:33.779Z,24.51
2023-09-03T16:32:08.074Z,24.47
2023-09-03T16:34:52.501Z,24.42
2023-09-03T16:37:23.612Z,24.39
2023-09-03T16:39:51.994Z,24.36
2023-09-03T16:42:20.805Z,24.34
2023-09-03T16:44:50.852Z,24.32
2023-09-03T16:47:26.202Z,24.31
2023-09-03T16:49:58.733Z,24.26
2023-09-03T16:52:29.590Z,24.25
2023-09-03T16:55:00.281Z,24.23
2023-09-03T16:57:31.968Z,24.23
2023-09-03T17:00:00.771Z,24.21
2023-09-03T17:02:31.441Z,24.16
2023-09-03T17:05:02.334Z,24.11
2023-09-03T17:07:41.190Z,24.08
2023-09-03T17:10:12.691Z,24.03
2023-09-03T17:12:46.880Z,23.98
2023-09-03T17:15:18.625Z,23.94
2023-09-03T17:17:52.587Z,23.90
2023-09-03T17:20:22.617Z,23.82
2023-09-03T17:23:08.166Z,23.77
2023-09-03T17:25:37.468Z,23.70
2023-09-03T17:28:20.366Z,23.64
2023-09-03T17:30:57.574Z,23.58
2023-09-03T17:33:28.325Z,23.54
2023-09-03T17:35:58.272Z,23.47
2023-09-03T17:38:30.893Z,23.41
2023-09-03T17:41:02.274Z,23.36
2023-09-03T17:43:34.881Z,23.33
2023-09-03T17:46:04.047Z,23.28
2023-09-03T17:48:34.268Z,23.22
2023-09-03T17:51:12.503Z,23.17
2023-09-03T17:53:42.645Z,23.13
2023-09-03T17:56:13.395Z,23.08
2023-09-03T17:58:44.272Z,22.98
2023-09-03T18:01:12.919Z,22.89
2023-09-03T18:03:45.670Z,22.77
2023-09-03T18:06:16.948Z,22.62
2023-09-03T18:08:49.556Z,22.51
2023-09-03T18:11:20.383Z,22.42
2023-09-03T18:13:49.301Z,22.32
2023-09-03T18:16:21.230Z,22.24
2023-09-03T18:18:52.172Z,22.16
2023-09-03T18:21:22.649Z,22.08
2023-09-03T18:23:52.505Z,21.99
2023-09-03T18:26:24.238Z,21.92
2023-09-03T18:28:52.938Z,21.81
2023-09-03T18:31:23.939Z,21.73
2023-09-03T18:33:58.561Z,21.66
2023-09-03T18:36:27.498Z,21.60
2023-09-03T18:38:58.403Z,21.56
2023-09-03T18:41:27.337Z,21.50
2023-09-03T18:43:56.196Z,21.44
2023-09-03T18:46:25.087Z,21.35
2023-09-03T18:48:58.357Z,21.31
2023-09-03T18:51:26.931Z,21.25
2023-09-03T18:53:57.716Z,21.19
2023-09-03T18:56:26.526Z,21.14
2023-09-03T18:58:56.254Z,21.14
2023-09-03T19:01:28.754Z,21.12
2023-09-03T19:03:59.528Z,21.08
2023-09-03T19:06:28.555Z,21.05
2023-09-03T19:08:59.632Z,21.03
2023-09-03T19:14:17.070Z,20.95
2023-09-03T19:16:48.895Z,20.92
2023-09-03T19:19:22.826Z,20.88
2023-09-03T19:21:52.422Z,20.85
2023-09-03T19:24:27.304Z,20.81
2023-09-03T19:26:57.333Z,20.76
2023-09-03T19:29:27.346Z,20.72
2023-09-03T19:32:03.932Z,20.66
2023-09-03T19:34:52.396Z,20.61
2023-09-03T19:40:14.965Z,20.53
2023-09-03T19:42:53.871Z,20.50
2023-09-03T19:45:33.450Z,20.45
2023-09-03T19:48:32.355Z,20.37
2023-09-03T19:51:02.816Z,20.29
2023-09-03T19:53:32.853Z,20.24
2023-09-03T19:56:06.084Z,20.17
2023-09-03T19:58:35.013Z,20.14
2023-09-03T20:01:07.075Z,20.13
2023-09-03T20:03:36.440Z,20.10
2023-09-03T20:06:07.104Z,20.06
2023-09-03T20:08:36.079Z,20.02
2023-09-03T20:11:06.072Z,19.97
2023-09-03T20:13:40.266Z,19.93
2023-09-03T20:16:09.099Z,19.91
2023-09-03T20:18:38.849Z,19.86
2023-09-03T20:21:08.952Z,19.82
2023-09-03T20:23:39.495Z,19.77
2023-09-03T20:26:09.952Z,19.72
2023-09-03T20:28:46.486Z,19.68
2023-09-03T20:31:17.135Z,19.65
2023-09-03T20:33:46.465Z,19.62
2023-09-03T20:36:16.822Z,19.59
2023-09-03T20:38:45.792Z,19.59
2023-09-03T20:41:14.778Z,19.65
2023-09-03T20:43:43.836Z,19.71
2023-09-03T20:46:13.478Z,19.70
2023-09-03T20:48:42.455Z,19.65
2023-09-03T20:51:11.033Z,19.62
2023-09-03T20:53:41.407Z,19.58
2023-09-03T20:56:10.173Z,19.54
2023-09-03T20:58:38.879Z,19.51
2023-09-03T21:01:14.155Z,19.47
2023-09-03T21:03:43.964Z,19.43
2023-09-03T21:06:12.958Z,19.38
2023-09-03T21:08:43.772Z,19.31
2023-09-03T21:11:12.477Z,19.30
2023-09-03T21:13:42.693Z,19.25
2023-09-03T21:16:11.497Z,19.20
2023-09-03T21:18:40.254Z,19.15
2023-09-03T21:21:08.968Z,19.11
2023-09-03T21:23:37.618Z,19.08
2023-09-03T21:26:15.135Z,19.03
2023-09-03T21:28:44.334Z,18.98
2023-09-03T21:31:19.663Z,18.93
2023-09-03T21:33:48.927Z,18.92
2023-09-03T21:36:20.729Z,18.91
2023-09-03T21:38:50.468Z,18.89
2023-09-03T21:41:20.709Z,18.85
2023-09-03T21:43:52.778Z,18.83
2023-09-03T21:46:21.581Z,18.85
2023-09-03T21:48:50.438Z,18.80
2023-09-03T21:51:20.553Z,18.78
2023-09-03T21:53:50.272Z,18.76
2023-09-03T21:56:20.399Z,18.77
2023-09-03T21:58:49.561Z,18.79
2023-09-03T22:01:18.427Z,18.78
2023-09-03T22:03:47.212Z,18.77
2023-09-03T22:06:16.247Z,18.78
2023-09-03T22:08:45.204Z,18.80
2023-09-03T22:11:13.851Z,18.84
2023-09-03T22:13:43.815Z,18.87
2023-09-03T22:16:12.951Z,18.88
2023-09-03T22:18:55.623Z,18.90
2023-09-03T22:21:26.343Z,18.94
2023-09-03T22:23:54.912Z,18.92
2023-09-03T22:26:23.698Z,18.86
2023-09-03T22:28:53.946Z,18.77
2023-09-03T22:31:22.531Z,18.69
2023-09-03T22:33:51.124Z,18.61
2023-09-03T22:36:19.565Z,18.56
2023-09-03T22:38:48.075Z,18.52
2023-09-03T22:41:16.936Z,18.52
2023-09-03T22:43:45.693Z,18.49
2023-09-03T22:46:15.516Z,18.44
2023-09-03T22:48:44.130Z,18.39
2023-09-03T22:51:12.626Z,18.36
2023-09-03T22:53:41.402Z,18.32
2023-09-03T22:56:10.627Z,18.31
2023-09-03T22:58:40.208Z,18.29
2023-09-03T23:01:08.837Z,18.27
2023-09-03T23:03:39.028Z,18.30
2023-09-03T23:06:07.499Z,18.32
2023-09-03T23:08:36.007Z,18.29
2023-09-03T23:11:04.533Z,18.28
2023-09-03T23:13:33.472Z,18.28
2023-09-03T23:16:01.717Z,18.26
2023-09-03T23:18:33.207Z,18.29
2023-09-03T23:21:09.751Z,18.33
2023-09-03T23:23:39.516Z,18.31
2023-09-03T23:26:07.706Z,18.24
2023-09-03T23:28:36.328Z,18.17
2023-09-03T23:31:04.752Z,18.09
2023-09-03T23:33:35.042Z,18.09
2023-09-03T23:36:04.639Z,18.15
2023-09-03T23:38:33.949Z,18.21
2023-09-03T23:41:02.460Z,18.23
2023-09-03T23:43:31.040Z,18.21
2023-09-03T23:45:59.876Z,18.16
2023-09-03T23:48:28.331Z,18.09
2023-09-03T23:50:56.493Z,18.06
2023-09-03T23:53:26.830Z,18.07
2023-09-03T23:55:55.460Z,18.08
2023-09-03T23:58:24.225Z,18.02
